Aviation Digital Data Service (ADDS)

Output produced by TAFs form (1957 UTC 05 May 2016)
found at http://aviationweather.gov/adds/tafs/
 
KASE 051724Z 0518/0618 02005KT P6SM SCT250 
     FM052200 32008KT P6SM FEW120 BKN250 
     FM060000 24007KT P6SM BKN250 
     FM060200 18006KT P6SM BKN250 
     FM061200 13004KT P6SM BKN150